Liliu Sappinen

球探 - Flora
3 十二月 2028
星期日
處理

性格

適應力 (5) 野心 (2) 爭議性 (1) 忠誠度 (13) 抗壓 (15) 職業素養 (8) 體育精神 (9) 性情 (15)

個人檔案

執教風格 民主型
教練證照 洲際C級
決心 7
人員管理 6
激勵 8
紀律 6
工作滿意度
100%
疲勞度
0%
職務 球探
薪資 31.5K 每週
合約 14.03.2030

性能

行為 良好
訓練效果
39%
球員發展
25%
傷病預防
50%
戰術執行
30%

近期事件

推荐了转会目标 刚刚
考察了一名球員 刚刚
考察了一名球員 刚刚
考察了一名球員 刚刚
考察了一名球員 刚刚
考察了一名球員 刚刚
考察了一名球員 刚刚
考察了一名球員 刚刚

正在监控

206
球員 俱樂部 狀態 能力 信心 已观察 最后观察 最新投票
Miguel Ceccotti Güemes 活跃 101 / 106 40% 2 02.12.2028 -
Diego Gaitán Maipú 活跃 111 / 113 40% 2 02.12.2028 -
Enzo González Defensores 活跃 112 / 100 40% 4 02.12.2028 -
Iván Cabrera Arsenal 活跃 110 / 105 40% 1 02.12.2028 -
Facundo López Morón 活跃 114 / 110 40% 1 02.12.2028 -
Juan Pintado Gimnasia La Plata 活跃 122 / 109 40% 1 02.12.2028 -
Thiago Sabella Banfield 活跃 109 / 110 40% 1 01.12.2028 -
Lisandro Musso Central Córdoba SdE 活跃 105 / 101 40% 1 01.12.2028 -
Roman Volochay Akron 活跃 78 / 85 40% 1 01.12.2028 -
Siro Rosané Estudiantes 活跃 125 / 128 40% 2 30.11.2028 -
Fernando Duré Estudiantes 活跃 104 / 118 40% 1 30.11.2028 -
Marcos Enrique Tristán Suárez 活跃 111 / 116 40% 1 30.11.2028 -
Nikolay Borushnov Dinamo Minsk 活跃 76 / 85 40% 1 30.11.2028 -
Mikhail Klyakin BATE 活跃 82 / 93 40% 1 30.11.2028 -
Martín Díaz Lanús 活跃 98 / 110 40% 1 30.11.2028 -
Yuber Quiñónes Patriotas 活跃 114 / 123 40% 3 29.11.2028 -
Cesar Rubio Envigado 活跃 123 / 130 40% 2 29.11.2028 -
Yeferson Rodallega Envigado 活跃 116 / 123 40% 3 29.11.2028 -
Facundo Melillán Güemes 活跃 120 / 96 40% 2 29.11.2028 -
Luciano Zannier Talleres 活跃 111 / 95 40% 1 29.11.2028 -
Camilo Alessandria Godoy Cruz 活跃 115 / 112 40% 1 29.11.2028 -
Andrey Tsitsilin Baltika 活跃 89 / 88 40% 1 29.11.2028 -
Makar Suschiy Slutsk 活跃 76 / 80 40% 1 29.11.2028 -
Artem Albastov Kolomna 活跃 77 / 72 40% 1 29.11.2028 -
Gastón Moreyra Almirante Brown 活跃 117 / 111 40% 2 28.11.2028 -
Lautaro Disanto Defensores Unidos 活跃 113 / 106 40% 2 28.11.2028 -
Pablo Cardona Cortulua 活跃 111 / 106 40% 3 26.11.2028 -
Joaquín Livera Morón 活跃 100 / 112 40% 1 26.11.2028 -
Juan Antonini Estudiantes 活跃 116 / 113 40% 1 26.11.2028 -
Thiago Parga Huracán 活跃 105 / 98 40% 1 26.11.2028 -
Vladislav Drozd Isloch 活跃 82 / 77 40% 1 26.11.2028 -
Dylan Moody Cheltenham Town 活跃 133 / 138 40% 1 26.11.2028 -
Agustín Benítez Defensores 活跃 112 / 124 40% 1 25.11.2028 -
Bruno Leyes Godoy Cruz 活跃 136 / 114 40% 2 24.11.2028 -
Luka Gagnidze Dinamo Moscow 活跃 123 / 113 40% 1 24.11.2028 -
Alexis Maldonado Belgrano 活跃 127 / 109 40% 1 23.11.2028 -
Mauro Peinipil Colón 活跃 107 / 122 40% 1 23.11.2028 -
Ruggero Ferrari Sassuolo 活跃 85 / 83 40% 1 23.11.2028 -
Robert Cook Accrington Stanley 活跃 114 / 109 40% 1 23.11.2028 -
Agustín Cañete Banfield 活跃 111 / 128 40% 1 23.11.2028 -
Tobías Leiva Estudiantes 活跃 114 / 129 40% 2 22.11.2028 -
Lucas Más Maipú 活跃 108 / 112 40% 1 22.11.2028 -
Agustín Sosa Madryn 活跃 119 / 116 40% 1 22.11.2028 -
Matías Vilalta Giana Erminio 活跃 108 / 117 40% 1 22.11.2028 -
Ulíses López Barracas Central 活跃 103 / 90 40% 1 22.11.2028 -
Ivan Chesnakov Chernomorets 活跃 69 / 69 40% 1 22.11.2028 -
Nahuel Curcio Colón 活跃 124 / 107 40% 4 21.11.2028 -
Matías Viguet Maipú 活跃 120 / 104 40% 2 21.11.2028 -
Martín Campos Ferro Carril Oeste 活跃 118 / 103 40% 1 21.11.2028 -
Mauro Osores San Martín SJ 活跃 115 / 104 40% 1 21.11.2028 -
Enzo Silcan Almagro 活跃 121 / 115 40% 1 21.11.2028 -
Vladislav Postrigan Akron 活跃 81 / 78 40% 1 21.11.2028 -
Ignacio Cardozo Vélez 活跃 94 / 101 40% 1 21.11.2028 -
Jack Austin Chelsea 活跃 98 / 101 40% 1 21.11.2028 -
Facundo Rodríguez Estudiantes 活跃 131 / 112 40% 1 18.11.2028 -
Brian Aguilar Tristán Suárez 活跃 112 / 100 40% 1 18.11.2028 -
Braian Aranda Agropecuario Argentino 活跃 122 / 104 40% 1 18.11.2028 -
Gerardo Díaz San Martín SJ 活跃 108 / 112 40% 1 17.11.2028 -
Yegor Trifonov Amkar 活跃 62 / 66 40% 1 17.11.2028 -
Lucas Wolfert Racing Club 活跃 110 / 115 40% 1 17.11.2028 -
Federico Bisanz Atlanta 活跃 117 / 120 40% 4 13.11.2028 -
Santiago Gutiérrez Alvarado 活跃 114 / 102 40% 1 13.11.2028 -
Iñaki Larthirigoyen San Telmo 活跃 125 / 116 40% 1 12.11.2028 -
Alexandr Lomovitskiy Torpedo-BelAZ 活跃 113 / 104 40% 1 12.11.2028 -
Daniel Barrea Godoy Cruz 活跃 133 / 135 40% 2 11.11.2028 -
Samuel Anakwe Remo Stars 活跃 93 / 87 40% 2 11.11.2028 -
Santiago Sala Güemes 活跃 116 / 105 40% 2 10.11.2028 -
Yeison Suárez Deportivo Pereira 活跃 122 / 103 40% 1 10.11.2028 -
Adrián Sánchez Belgrano 活跃 130 / 112 40% 3 09.11.2028 -
Franco Ayunta Temperley 活跃 107 / 99 40% 1 09.11.2028 -
Luis Ángel Díaz Independiente Rivadavia 活跃 116 / 125 40% 2 08.11.2028 -
Juan Velázquez Belgrano 活跃 127 / 124 40% 1 08.11.2028 -
Rodrigo González Mitre 活跃 127 / 126 40% 1 08.11.2028 -
Nicolás Retamar Ferro Carril Oeste 活跃 123 / 119 40% 2 07.11.2028 -
Gianluca Pugliese Güemes 活跃 116 / 104 40% 1 07.11.2028 -
Alex Oyowah Rivers United 活跃 105 / 111 40% 2 05.11.2028 -
Agustín Morales Estudiantes 活跃 118 / 112 40% 2 05.11.2028 -
Matías Bergara Nueva Chicago 活跃 121 / 114 40% 2 04.11.2028 -
Patricio Moyano Defensores 活跃 126 / 118 40% 1 04.11.2028 -
Ramón González Almirante Brown 活跃 110 / 113 40% 1 04.11.2028 -
Alejo Dramisino Atlanta 活跃 122 / 129 40% 1 02.11.2028 -
Alcides Benítez Belgrano 活跃 127 / 129 40% 1 02.11.2028 -
Federico Álvarez Dinamo Tbilisi 活跃 117 / 125 40% 1 01.11.2028 -
Juan Sebastián Herrera Deportivo La Guaira 活跃 113 / 113 40% 1 01.11.2028 -
Luis Palacios Once Caldas 活跃 117 / 128 40% 1 31.10.2028 -
Radivoj Bosić Vitebsk 活跃 110 / 106 40% 1 30.10.2028 -
John Córdoba Millonarios 活跃 120 / 132 40% 4 27.10.2028 -
Julián Vera Maipú 活跃 106 / 102 40% 1 26.10.2028 -
Facundo Villarreal Los Andes 活跃 102 / 95 40% 1 26.10.2028 -
Yegor Kortsov Dinamo Brest 活跃 117 / 109 40% 4 24.10.2028 -
Mauro Valiente Estudiantes 活跃 119 / 123 40% 1 19.10.2028 -
Kirill Tsepenkov Dnepr Mogilev 活跃 107 / 98 40% 1 19.10.2028 -
Tomás Pozzo Godoy Cruz 活跃 128 / 128 40% 2 17.10.2028 -
Carlos Cantillo Jaguares 活跃 109 / 110 40% 1 17.10.2028 -
Karen Vardanyan Dinamo Minsk 活跃 104 / 100 40% 1 16.10.2028 -
Luis Olivera Defensores Unidos 活跃 113 / 98 40% 1 16.10.2028 -
Matías Ramírez Godoy Cruz 活跃 120 / 107 40% 1 15.10.2028 -
Guljigit Alykulov Dinamo Minsk 活跃 113 / 99 40% 1 15.10.2028 -
Franco Vedoya Central Norte 活跃 119 / 101 40% 1 13.10.2028 -
Tomás Ferreyra Defensores Unidos 活跃 115 / 110 40% 2 12.10.2028 -
Timothy Zechariah Rivers United 活跃 100 / 106 40% 1 12.10.2028 -
Nazareno Kihm Ferro Carril Oeste 活跃 117 / 129 40% 1 12.10.2028 -
Matteo Trombini Arsenal 活跃 105 / 100 40% 1 11.10.2028 -
José Barreto Quilmes 活跃 122 / 125 40% 1 08.10.2028 -
Juan David Rueda Alianza Petrolera 活跃 106 / 123 40% 1 08.10.2028 -
Johan Campaña Patriotas 活跃 115 / 97 40% 1 06.10.2028 -
David Veliz Güemes 活跃 116 / 114 40% 1 02.10.2028 -
Giorgi Arabidze Torpedo Kutaisi 活跃 126 / 103 40% 1 21.08.2028 -
Nicolás Baigorria FCI Tallinn 已失去 83 / 87 79% 1 14.08.2028 赞成
Jesús Amarilla Nomme Kalju 已失去 96 / 98 79% 1 07.08.2028 赞成
Tom Davies Barnet 活跃 137 / 147 40% 1 07.08.2028 -
Jay McGrath Doncaster Rovers 活跃 115 / 108 40% 1 07.08.2028 -
Harvey Rodgers Colchester United 谈判中 116 / 122 40% 1 07.08.2028 -
Abdourahman Badamosi Paide 活跃 88 / 92 79% 1 19.06.2028 赞成
Vladimir Khubulov Dinamo Makhachkala 活跃 108 / 116 40% 1 31.05.2028 -
Gamid Agalarov Orenburg 活跃 113 / 109 40% 1 31.05.2028 -
Joshua Ajala Walsall 活跃 100 / 96 40% 1 31.05.2028 -
Fernando Costanza Krylya Sovetov 活跃 124 / 126 40% 1 31.05.2028 -
Alexandr Ivankov Torpedo Moscow 活跃 115 / 108 40% 1 31.05.2028 -
Vicente Poggi Godoy Cruz 活跃 117 / 112 40% 1 03.01.2028 -
Ignacio Saavedra Sochi 活跃 117 / 123 40% 1 03.01.2028 -
Stanislav Magkeev Fakel 活跃 118 / 103 40% 1 03.01.2028 -
Jacob Dicko Eng Paide 活跃 101 / 104 42% 1 / 1m 03.11.2027 -
Tomás Clavijo Narva Trans 活跃 81 / 82 72% 1 12.07.2027 赞成
Chilem Williams Ignatius Tammeka 活跃 74 / 79 30% 1 / 1m 16.06.2027 -
Pavel Marin Tammeka 活跃 96 / 96 30% 1 / 1m 16.06.2027 -
Iker Pozo Rodina 活跃 123 / 114 40% 4 31.05.2027 -
Yegor Noskov SKA Khabarovsk 活跃 91 / 101 40% 1 31.05.2027 -
Denis Fomin SKA Khabarovsk 活跃 92 / 92 40% 2 30.05.2027 -
Daniil Penchikov Arsenal Tula 活跃 105 / 107 40% 2 30.05.2027 -
Edgardo Fariña Nizhniy Novgorod 活跃 117 / 108 40% 1 30.05.2027 -
Garrik Levin Chelyabinsk 活跃 108 / 107 40% 2 29.05.2027 -
Temirkan Sundukov Dinamo Makhachkala 活跃 110 / 120 40% 2 28.05.2027 -
Pavel Maslov Chaika 活跃 105 / 111 40% 4 28.05.2027 -
Mitja Križan Rodina 活跃 103 / 111 40% 2 24.05.2027 -
Mario Ćurić Torpedo Moscow 活跃 102 / 100 40% 3 23.05.2027 -
Ítalo Ural 活跃 107 / 110 40% 3 23.05.2027 -
Konstantin Kovalev Volga 活跃 96 / 91 40% 1 23.05.2027 -
Mamadou Maïga Nizhniy Novgorod 活跃 107 / 113 40% 3 22.05.2027 -
Danila Vedernikov Orenburg 活跃 104 / 100 40% 2 22.05.2027 -
Artem Makarchuk Sochi 活跃 115 / 105 40% 2 18.05.2027 -
Nikita Pechenkin Sokol 活跃 98 / 104 40% 2 18.05.2027 -
Joe Snowdon Swindon Town 活跃 103 / 98 40% 1 18.05.2027 -
Vladis Emmersón Yenisey 活跃 105 / 106 40% 4 17.05.2027 -
Nikita Kakkoev Nizhniy Novgorod 活跃 120 / 105 40% 1 17.05.2027 -
Nader Mohammadi Spartak Kostroma 活跃 100 / 94 40% 3 16.05.2027 -
Idar Shumakhov Dinamo Makhachkala 活跃 108 / 104 40% 3 14.05.2027 -
Riley Owen Stevenage 活跃 111 / 118 40% 1 14.05.2027 -
Soslan Takulov Arsenal Tula 活跃 102 / 98 40% 3 13.05.2027 -
Daniil Marugin Shinnik 活跃 101 / 92 40% 2 11.05.2027 -
Kirill Bolshakov Arsenal Tula 活跃 104 / 110 40% 2 11.05.2027 -
Igor Konovalov Chernomorets 活跃 105 / 92 40% 4 09.05.2027 -
Alexandr Troshechkin Rotor 活跃 110 / 96 40% 1 04.05.2027 -
Eneko Astigarraga Real Sociedad 活跃 107 / 113 40% 1 04.05.2027 -
Alexey Berdnikov Chelyabinsk 活跃 104 / 99 40% 3 30.04.2027 -
Kirill Malyarov Shinnik 活跃 101 / 95 40% 3 25.04.2027 -
Maxim Shnaptsev Baltika 活跃 104 / 102 40% 1 25.04.2027 -
Vyacheslav Litvinov Sochi 活跃 106 / 112 40% 1 13.04.2027 -
Islamzhan Nasyrov Ryazan 活跃 87 / 95 40% 2 04.04.2027 -
Saminu Abdullahi KAMAZ 活跃 106 / 111 40% 2 02.04.2027 -
Faruk Gogić Spartak Kostroma 活跃 103 / 92 40% 1 02.04.2027 -
Eldar Ćivić Baltika 活跃 115 / 118 40% 3 01.04.2027 -
Artemy Kosogorov Shinnik 活跃 95 / 92 40% 1 01.04.2027 -
Andrés Alarcón Dinamo Makhachkala 活跃 119 / 117 40% 2 31.03.2027 -
Ruslan Baitukov Chelyabinsk 活跃 93 / 88 40% 1 31.03.2027 -
Artem Meschaninov Rodina 活跃 101 / 96 40% 1 29.03.2027 -
David Kokoev Yenisey 活跃 105 / 99 40% 2 17.03.2027 -
Alan Tsaraev Arsenal Tula 活跃 109 / 96 40% 1 17.03.2027 -
Khetag Khosonov Akron 活跃 108 / 109 40% 1 17.03.2027 -
David Shavlokhov Chernomorets 活跃 92 / 102 40% 3 16.03.2027 -
Vladislav Masternoy SKA Khabarovsk 活跃 100 / 100 40% 1 16.03.2027 -
Alan Khabalov Ufa 活跃 89 / 85 40% 1 16.03.2027 -
Bojan Roganović Torpedo Moscow 活跃 105 / 102 40% 2 06.03.2027 -
Alexandr Soldatenkov Sochi 活跃 119 / 118 40% 1 05.03.2027 -
Kirill Bozhenov Sokol 活跃 96 / 88 40% 2 03.03.2027 -
Gleb Shevchenko Torpedo Moscow 活跃 111 / 104 40% 1 01.03.2027 -
Robert Mejía Orenburg 活跃 120 / 106 40% 1 01.03.2027 -
Ebrima Jarju Paide 活跃 96 / 91 69% 1 04.01.2027 赞成
Evgeniy Abramovich Slavia Mozyr 活跃 91 / 106 40% 3 02.01.2027 -
Igor Leschuk Dinamo Moscow 活跃 124 / 112 40% 1 02.01.2027 -
Said Aliev Rotor 活跃 99 / 87 40% 1 31.12.2026 -
Alexandr Yushin Torpedo Moscow 活跃 111 / 113 40% 1 31.12.2026 -
Igor Obukhov Fakel 活跃 101 / 93 40% 1 29.12.2026 -
Oleh Bilyk Epicentr 活跃 105 / 102 40% 1 29.12.2026 -
Maxim Borisko CSKA Moscow 活跃 131 / 116 40% 2 28.12.2026 -
Marat Bokoev Akron 活跃 116 / 116 40% 2 27.12.2026 -
Ilja Pomazun Spartak Moscow 活跃 114 / 129 40% 3 25.12.2026 -
Timur Akmurzin Dinamo Bryansk 活跃 86 / 90 40% 1 25.12.2026 -
Ionuţ Nedelcearu Akron 活跃 114 / 105 40% 1 20.12.2026 -
Sergey Volkov Rodina 活跃 103 / 109 40% 2 18.12.2026 -
Vitaly Gudiev Akron 活跃 106 / 99 40% 1 18.12.2026 -
Alkalifa Coulibaly Onze Createurs 活跃 95 / 94 40% 1 13.12.2026 -
Alexandr Filin Baltika 活跃 117 / 104 40% 1 13.12.2026 -
Soslan Kagermazov Dinamo Makhachkala 活跃 99 / 88 40% 1 08.12.2026 -
Giorgi Kantaria Neftekhimik 活跃 101 / 101 40% 1 08.12.2026 -
Anton Mitryushkin Lokomotiv Moscow 活跃 116 / 128 40% 1 28.11.2026 -
Alexey Kuznetsov Leningradets 活跃 98 / 89 40% 1 27.11.2026 -
Facundo Altamirano San Lorenzo 活跃 124 / 128 40% 1 24.11.2026 -
Maycon Cleiton Zira 活跃 114 / 96 40% 1 24.11.2026 -
Maxim Belov Dinamo Brest 活跃 100 / 89 40% 1 21.11.2026 -
Fahd Moufi Baltika 活跃 112 / 119 40% 1 19.11.2026 -
Luke Southwood Bristol Rovers 活跃 114 / 99 40% 1 19.11.2026 -
Luke McGee Tranmere Rovers 活跃 99 / 112 40% 1 19.11.2026 -
Rayan Kolli Queens Park Rangers 活跃 120 / 95 40% 1 01.08.2026 -
Jacobo Alcalde SKA Khabarovsk 活跃 90 / 84 40% 1 01.08.2026 -
Sebastián Cocimano Nueva Chicago 活跃 113 / 117 40% 1 01.08.2026 -